createdAt,value
2018-05-31T00:00:16.871Z,34.70
2018-05-31T00:01:16.783Z,35.60
2018-05-31T00:02:16.692Z,33.70
2018-05-31T00:03:16.701Z,34.30
2018-05-31T00:04:16.546Z,34.20
2018-05-31T00:05:16.428Z,35.40
2018-05-31T00:06:16.338Z,34.00
2018-05-31T00:07:16.248Z,33.10
2018-05-31T00:08:16.162Z,34.50
2018-05-31T00:09:16.076Z,34.10
2018-05-31T00:10:16.109Z,33.40
2018-05-31T00:11:15.897Z,33.90
2018-05-31T00:12:15.808Z,33.30
2018-05-31T00:13:15.717Z,34.50
2018-05-31T00:14:15.632Z,35.70
2018-05-31T00:15:15.590Z,34.10
2018-05-31T00:16:15.454Z,35.50
2018-05-31T00:17:15.462Z,34.60
2018-05-31T00:18:15.278Z,34.20
2018-05-31T00:19:15.192Z,35.20
2018-05-31T00:20:15.129Z,35.50
2018-05-31T00:21:15.012Z,38.00
2018-05-31T00:22:14.923Z,37.80
2018-05-31T00:23:14.834Z,36.00
2018-05-31T00:24:14.746Z,38.40
2018-05-31T00:25:14.754Z,36.50
2018-05-31T00:26:14.571Z,35.00
2018-05-31T00:27:14.481Z,34.70
2018-05-31T00:28:14.394Z,34.80
2018-05-31T00:29:14.307Z,36.60
2018-05-31T00:30:14.245Z,35.10
2018-05-31T00:31:14.127Z,36.50
2018-05-31T00:32:14.038Z,37.40
2018-05-31T00:33:13.952Z,39.20
2018-05-31T00:34:13.866Z,39.30
2018-05-31T00:35:13.805Z,37.90
2018-05-31T00:36:13.691Z,38.90
2018-05-31T00:37:13.597Z,37.70
2018-05-31T00:38:13.510Z,38.90
2018-05-31T00:39:13.421Z,38.70
2018-05-31T00:40:13.360Z,41.10
2018-05-31T00:41:13.243Z,40.20
2018-05-31T00:42:13.155Z,38.50
2018-05-31T00:43:13.072Z,38.60
2018-05-31T00:44:12.979Z,40.90
2018-05-31T00:45:12.919Z,43.80
2018-05-31T00:46:12.802Z,42.10
2018-05-31T00:47:12.714Z,44.70
2018-05-31T00:48:12.624Z,43.90
2018-05-31T00:49:12.535Z,44.20
2018-05-31T00:50:12.476Z,44.90
2018-05-31T00:51:12.360Z,45.30
2018-05-31T00:52:12.267Z,43.90
2018-05-31T00:53:12.179Z,43.90
2018-05-31T00:54:12.094Z,44.90
2018-05-31T00:55:12.033Z,44.60
2018-05-31T00:56:11.917Z,46.00
2018-05-31T00:57:11.828Z,44.70
2018-05-31T00:58:11.738Z,44.00
2018-05-31T00:59:11.651Z,44.00
2018-05-31T01:00:11.592Z,43.80
2018-05-31T01:01:11.474Z,43.90
2018-05-31T01:02:11.390Z,43.70
2018-05-31T01:03:11.296Z,41.30
2018-05-31T01:04:11.209Z,41.10
2018-05-31T01:05:11.149Z,42.80
2018-05-31T01:06:11.030Z,43.60
2018-05-31T01:07:10.942Z,43.20
2018-05-31T01:08:10.853Z,41.70
2018-05-31T01:09:10.766Z,41.60
2018-05-31T01:10:10.709Z,43.00
2018-05-31T01:11:10.589Z,43.40
2018-05-31T01:12:10.501Z,43.50
2018-05-31T01:13:10.411Z,42.20
2018-05-31T01:14:10.322Z,42.10
2018-05-31T01:15:10.235Z,41.40
2018-05-31T01:16:10.176Z,40.70
2018-05-31T01:17:10.059Z,41.60
2018-05-31T01:18:09.972Z,39.30
2018-05-31T01:19:09.895Z,39.50
2018-05-31T01:20:09.796Z,37.90
2018-05-31T01:21:09.736Z,36.20
2018-05-31T01:22:09.617Z,39.90
2018-05-31T01:23:09.528Z,39.50
2018-05-31T01:24:09.442Z,41.40
2018-05-31T01:25:09.355Z,39.40
2018-05-31T01:26:09.294Z,37.90
2018-05-31T01:27:09.176Z,38.40
2018-05-31T01:28:09.092Z,34.30
2018-05-31T01:29:08.999Z,36.20
2018-05-31T01:30:08.912Z,36.30
2018-05-31T01:31:08.853Z,38.10
2018-05-31T01:32:08.742Z,37.00
2018-05-31T01:33:08.649Z,37.20
2018-05-31T01:34:08.559Z,36.50
2018-05-31T01:35:08.470Z,38.80
2018-05-31T01:36:08.415Z,40.30
2018-05-31T01:37:08.294Z,37.90
2018-05-31T01:38:08.207Z,39.80
2018-05-31T01:39:08.117Z,40.30
2018-05-31T01:40:08.028Z,40.90
2018-05-31T01:41:07.969Z,41.40
2018-05-31T01:42:07.852Z,41.50
2018-05-31T01:43:07.764Z,41.40
2018-05-31T01:44:07.678Z,41.40
2018-05-31T01:45:07.589Z,42.80
2018-05-31T01:46:07.531Z,42.20
2018-05-31T01:47:07.417Z,42.70
2018-05-31T01:48:07.611Z,42.10
2018-05-31T01:49:07.240Z,40.80
2018-05-31T01:50:07.150Z,41.50
2018-05-31T01:51:07.089Z,41.10
2018-05-31T01:52:06.971Z,41.60
2018-05-31T01:53:06.881Z,38.90
2018-05-31T01:54:06.793Z,39.30
2018-05-31T01:55:06.808Z,41.00
2018-05-31T01:56:06.650Z,39.10
2018-05-31T01:57:06.530Z,40.50
2018-05-31T01:58:06.447Z,39.90
2018-05-31T01:59:06.350Z,39.30
2018-05-31T02:00:06.264Z,38.90
2018-05-31T02:01:06.203Z,40.10
2018-05-31T02:02:06.197Z,40.50
2018-05-31T02:03:05.995Z,41.70
2018-05-31T02:04:05.908Z,41.60
2018-05-31T02:05:05.824Z,41.80
2018-05-31T02:06:05.764Z,41.60
2018-05-31T02:07:05.641Z,41.50
2018-05-31T02:08:05.555Z,42.00
2018-05-31T02:09:05.569Z,41.50
2018-05-31T02:10:05.382Z,44.20
2018-05-31T02:11:05.321Z,43.40
2018-05-31T02:12:05.202Z,43.10
2018-05-31T02:13:05.115Z,42.50
2018-05-31T02:14:05.026Z,42.10
2018-05-31T02:15:04.939Z,41.90
2018-05-31T02:16:04.976Z,41.60
2018-05-31T02:17:04.757Z,41.70
2018-05-31T02:18:04.671Z,40.60
2018-05-31T02:19:04.582Z,40.40
2018-05-31T02:20:04.494Z,41.00
2018-05-31T02:21:04.435Z,41.30
2018-05-31T02:22:04.315Z,41.10
2018-05-31T02:23:04.342Z,39.90
2018-05-31T02:24:04.143Z,41.00
2018-05-31T02:25:04.049Z,40.60
2018-05-31T02:26:03.964Z,39.90
2018-05-31T02:27:03.901Z,41.00
2018-05-31T02:28:03.782Z,39.70
2018-05-31T02:29:03.695Z,40.60
2018-05-31T02:30:03.702Z,41.90
2018-05-31T02:31:03.526Z,41.20
2018-05-31T02:32:03.462Z,42.10
2018-05-31T02:33:03.346Z,39.00
2018-05-31T02:34:03.253Z,40.40
2018-05-31T02:35:03.167Z,39.20
2018-05-31T02:36:03.078Z,40.20
2018-05-31T02:37:03.117Z,39.20
2018-05-31T02:38:02.900Z,39.80
2018-05-31T02:39:02.810Z,41.00
2018-05-31T02:40:02.723Z,40.10
2018-05-31T02:41:02.640Z,42.60
2018-05-31T02:42:02.577Z,41.40
2018-05-31T02:43:02.457Z,41.10
2018-05-31T02:44:02.489Z,40.20
2018-05-31T02:45:02.278Z,40.40
2018-05-31T02:46:02.190Z,42.50
2018-05-31T02:47:02.132Z,41.60
2018-05-31T02:48:02.015Z,39.50
2018-05-31T02:49:01.925Z,41.20
2018-05-31T02:50:01.844Z,41.40
2018-05-31T02:51:01.851Z,39.50
2018-05-31T02:52:01.690Z,39.40
2018-05-31T02:53:01.583Z,39.80
2018-05-31T02:54:01.485Z,40.70
2018-05-31T02:55:01.395Z,41.40
2018-05-31T02:56:01.305Z,41.10
2018-05-31T02:57:01.253Z,40.20
2018-05-31T02:58:01.231Z,38.40
2018-05-31T02:59:01.042Z,39.40
2018-05-31T03:00:00.959Z,39.60
2018-05-31T03:01:00.870Z,40.30
2018-05-31T03:02:00.808Z,41.00
2018-05-31T03:03:00.688Z,40.90
2018-05-31T03:04:00.600Z,40.10
2018-05-31T03:05:00.614Z,38.70
2018-05-31T03:06:00.421Z,39.90
2018-05-31T03:07:00.363Z,41.90
2018-05-31T03:08:00.246Z,40.50
2018-05-31T03:09:00.156Z,43.40
2018-05-31T03:10:00.069Z,42.30
2018-05-31T03:10:59.981Z,41.40
2018-05-31T03:11:59.921Z,42.60
2018-05-31T03:12:59.805Z,42.60
2018-05-31T03:13:59.716Z,44.00
2018-05-31T03:14:59.628Z,43.20
2018-05-31T03:15:59.537Z,42.90
2018-05-31T03:16:59.481Z,42.50
2018-05-31T03:17:59.364Z,43.10
2018-05-31T03:18:59.272Z,44.00
2018-05-31T03:19:59.186Z,42.40
2018-05-31T03:20:59.095Z,40.30
2018-05-31T03:21:59.038Z,39.40
2018-05-31T03:22:58.918Z,37.50
2018-05-31T03:23:58.832Z,39.20
2018-05-31T03:24:58.742Z,38.10
2018-05-31T03:25:58.654Z,37.30
2018-05-31T03:26:58.596Z,36.30
2018-05-31T03:27:58.475Z,34.90
2018-05-31T03:28:58.390Z,34.30
2018-05-31T03:29:58.300Z,34.20
2018-05-31T03:30:58.215Z,36.20
2018-05-31T03:31:58.152Z,35.70
2018-05-31T03:32:58.034Z,36.50
2018-05-31T03:33:57.944Z,35.90
2018-05-31T03:34:57.861Z,34.80
2018-05-31T03:35:57.772Z,35.00
2018-05-31T03:36:57.714Z,34.70
2018-05-31T03:37:57.595Z,33.10
2018-05-31T03:38:57.510Z,35.60
2018-05-31T03:39:57.418Z,35.40
2018-05-31T03:40:57.905Z,33.90
2018-05-31T03:41:57.269Z,34.10
2018-05-31T03:42:57.152Z,30.70
2018-05-31T03:43:57.060Z,30.90
2018-05-31T03:44:56.975Z,29.80
2018-05-31T03:45:57.009Z,30.60
2018-05-31T03:46:56.802Z,29.50
2018-05-31T03:47:56.741Z,29.40
2018-05-31T03:48:56.619Z,31.70
2018-05-31T03:49:56.533Z,31.60
2018-05-31T03:50:56.444Z,33.90
2018-05-31T03:51:56.356Z,31.70
2018-05-31T03:52:56.295Z,32.20
2018-05-31T03:53:56.179Z,31.20
2018-05-31T03:54:56.087Z,31.80
2018-05-31T03:55:56.000Z,30.50
2018-05-31T03:56:55.913Z,30.60
2018-05-31T03:57:55.851Z,31.90
2018-05-31T03:58:55.733Z,31.40
2018-05-31T03:59:55.644Z,30.10
2018-05-31T04:00:55.557Z,33.50
2018-05-31T04:01:55.471Z,30.50
2018-05-31T04:02:55.414Z,30.40
2018-05-31T04:03:55.293Z,38.60
2018-05-31T04:04:55.204Z,38.80
2018-05-31T04:05:55.115Z,39.80
2018-05-31T04:06:55.026Z,39.70
2018-05-31T04:07:54.968Z,36.30
2018-05-31T04:08:54.850Z,33.40
2018-05-31T04:09:54.761Z,34.40
2018-05-31T04:10:54.674Z,31.80
2018-05-31T04:11:54.586Z,33.10
2018-05-31T04:12:54.526Z,33.50
2018-05-31T04:13:54.406Z,32.30
2018-05-31T04:14:54.317Z,28.70
2018-05-31T04:15:54.230Z,31.70
2018-05-31T04:16:54.139Z,33.80
2018-05-31T04:17:54.083Z,29.80
2018-05-31T04:18:53.963Z,28.80
2018-05-31T04:19:53.875Z,28.60
2018-05-31T04:20:53.790Z,27.70
2018-05-31T04:21:53.700Z,26.20
2018-05-31T04:22:53.635Z,26.50
2018-05-31T04:23:53.521Z,26.40
2018-05-31T04:24:53.435Z,25.70
2018-05-31T04:25:53.344Z,24.90
2018-05-31T04:26:53.255Z,25.30
2018-05-31T04:27:53.294Z,24.50
2018-05-31T04:28:53.082Z,24.20
2018-05-31T04:29:52.994Z,24.50
2018-05-31T04:30:52.900Z,24.70
2018-05-31T04:31:52.812Z,23.10
2018-05-31T04:32:52.757Z,24.20
2018-05-31T04:33:52.636Z,23.50
2018-05-31T04:34:52.547Z,23.90
2018-05-31T04:35:52.461Z,24.60
2018-05-31T04:36:52.371Z,24.50
2018-05-31T04:37:52.316Z,24.10
2018-05-31T04:38:52.907Z,24.00
2018-05-31T04:39:52.106Z,23.70
2018-05-31T04:40:52.016Z,23.50
2018-05-31T04:41:52.152Z,23.30
2018-05-31T04:42:51.872Z,22.60
2018-05-31T04:43:51.754Z,22.50
2018-05-31T04:44:51.666Z,23.00
2018-05-31T04:45:51.579Z,21.40
2018-05-31T04:46:51.487Z,22.20
2018-05-31T04:47:51.438Z,21.60
2018-05-31T04:48:51.405Z,21.70
2018-05-31T04:49:51.226Z,21.70
2018-05-31T04:50:51.137Z,26.00
2018-05-31T04:51:51.049Z,27.00
2018-05-31T04:52:50.977Z,27.30
2018-05-31T04:53:50.908Z,28.50
2018-05-31T04:54:50.787Z,27.90
2018-05-31T04:55:50.797Z,28.80
2018-05-31T04:56:50.615Z,28.00
2018-05-31T04:57:50.524Z,28.50
2018-05-31T04:58:50.467Z,29.20
2018-05-31T04:59:50.348Z,30.30
2018-05-31T05:00:50.264Z,30.10
2018-05-31T05:01:51.378Z,28.10
2018-05-31T05:02:50.196Z,27.70
2018-05-31T05:03:50.027Z,27.90
2018-05-31T05:04:49.912Z,28.40
2018-05-31T05:05:49.828Z,28.90
2018-05-31T05:06:49.739Z,26.40
2018-05-31T05:07:49.647Z,24.00
2018-05-31T05:08:49.590Z,23.80
2018-05-31T05:09:49.569Z,21.30
2018-05-31T05:10:49.388Z,22.00
2018-05-31T05:11:49.297Z,23.30
2018-05-31T05:12:49.212Z,21.70
2018-05-31T05:13:49.158Z,21.90
2018-05-31T05:14:49.039Z,22.50
2018-05-31T05:15:48.947Z,23.20
2018-05-31T05:16:48.957Z,22.60
2018-05-31T05:17:48.775Z,23.20
2018-05-31T05:18:48.717Z,21.70
2018-05-31T05:19:48.602Z,22.10
2018-05-31T05:20:48.515Z,20.80
2018-05-31T05:21:48.455Z,21.30
2018-05-31T05:22:48.342Z,22.60
2018-05-31T05:23:48.377Z,23.10
2018-05-31T05:24:48.176Z,22.30
2018-05-31T05:25:48.078Z,23.30
2018-05-31T05:26:47.991Z,23.10
2018-05-31T05:27:47.905Z,23.50
2018-05-31T05:28:48.434Z,23.20
2018-05-31T05:29:47.727Z,23.30
2018-05-31T05:30:47.894Z,23.30
2018-05-31T05:31:47.555Z,22.20
2018-05-31T05:32:47.468Z,21.90
2018-05-31T05:33:47.409Z,22.40
2018-05-31T05:34:47.292Z,21.60
2018-05-31T05:35:47.223Z,22.00
2018-05-31T05:36:47.122Z,21.80
2018-05-31T05:37:47.126Z,22.40
2018-05-31T05:38:46.973Z,22.30
2018-05-31T05:39:46.856Z,22.70
2018-05-31T05:40:46.771Z,22.90
2018-05-31T05:41:46.683Z,22.50
2018-05-31T05:42:46.596Z,22.70
2018-05-31T05:43:46.536Z,23.60
2018-05-31T05:44:46.517Z,22.50
2018-05-31T05:45:46.335Z,21.10
2018-05-31T05:46:46.246Z,20.90
2018-05-31T05:47:46.161Z,21.10
2018-05-31T05:48:46.107Z,21.70
2018-05-31T05:49:45.991Z,20.90
2018-05-31T05:50:45.899Z,20.50
2018-05-31T05:51:45.905Z,20.90
2018-05-31T05:52:45.726Z,19.40
2018-05-31T05:53:45.670Z,19.30
2018-05-31T05:54:45.550Z,18.10
2018-05-31T05:55:47.394Z,19.00
2018-05-31T05:56:45.895Z,17.90
2018-05-31T05:57:45.291Z,19.20
2018-05-31T05:58:45.231Z,17.80
2018-05-31T05:59:45.123Z,18.30
2018-05-31T06:00:45.032Z,17.70
2018-05-31T06:01:44.947Z,18.30
2018-05-31T06:02:44.858Z,17.40
2018-05-31T06:03:44.799Z,18.10
2018-05-31T06:04:45.401Z,18.50
2018-05-31T06:05:44.600Z,17.70
2018-05-31T06:06:44.511Z,19.00
2018-05-31T06:07:44.424Z,19.60
2018-05-31T06:08:44.340Z,18.40
2018-05-31T06:09:44.279Z,18.70
2018-05-31T06:10:44.162Z,19.20
2018-05-31T06:11:44.078Z,19.20
2018-05-31T06:12:43.991Z,18.60
2018-05-31T06:13:43.907Z,18.40
2018-05-31T06:14:43.848Z,19.10
2018-05-31T06:15:43.732Z,19.10
2018-05-31T06:16:43.646Z,19.10
2018-05-31T06:17:43.562Z,19.60
2018-05-31T06:18:43.473Z,19.70
2018-05-31T06:19:43.455Z,20.30
2018-05-31T06:20:43.302Z,20.70
2018-05-31T06:21:43.214Z,20.50
2018-05-31T06:22:43.131Z,21.70
2018-05-31T06:23:43.042Z,21.20
2018-05-31T06:24:42.982Z,20.70
2018-05-31T06:25:42.868Z,21.80
2018-05-31T06:26:42.782Z,21.90
2018-05-31T06:27:42.701Z,22.40
2018-05-31T06:28:42.615Z,21.90
2018-05-31T06:29:42.555Z,23.20
2018-05-31T06:30:42.441Z,21.90
2018-05-31T06:31:42.354Z,22.40
2018-05-31T06:32:42.267Z,20.80
2018-05-31T06:33:42.178Z,21.90
2018-05-31T06:34:42.121Z,22.40
2018-05-31T06:35:42.008Z,22.00
2018-05-31T06:36:41.921Z,21.00
2018-05-31T06:37:42.467Z,20.80
2018-05-31T06:38:41.748Z,19.60
2018-05-31T06:39:41.696Z,19.60
2018-05-31T06:40:41.589Z,19.20
2018-05-31T06:41:41.490Z,18.50
2018-05-31T06:42:41.406Z,17.90
2018-05-31T06:43:41.318Z,18.30
2018-05-31T06:44:41.263Z,18.40
2018-05-31T06:45:41.148Z,18.40
2018-05-31T06:46:41.063Z,17.70
2018-05-31T06:47:40.981Z,17.90
2018-05-31T06:48:40.895Z,17.50
2018-05-31T06:49:40.844Z,17.00
2018-05-31T06:50:40.723Z,16.70
2018-05-31T06:51:40.641Z,16.30
2018-05-31T06:52:40.577Z,16.40
2018-05-31T06:53:40.471Z,16.50
2018-05-31T06:54:40.420Z,16.40
2018-05-31T06:55:40.309Z,16.60
2018-05-31T06:56:40.221Z,15.70
2018-05-31T06:57:40.140Z,16.40
2018-05-31T06:58:40.054Z,15.60
2018-05-31T06:59:40.001Z,14.60
2018-05-31T07:00:39.890Z,14.80
2018-05-31T07:01:39.806Z,14.20
2018-05-31T07:02:39.725Z,14.20
2018-05-31T07:03:39.641Z,13.60
2018-05-31T07:04:39.593Z,13.80
2018-05-31T07:05:39.479Z,13.20
2018-05-31T07:06:39.397Z,13.80
2018-05-31T07:07:39.316Z,14.50
2018-05-31T07:08:39.236Z,14.00
2018-05-31T07:09:39.187Z,14.00
2018-05-31T07:10:39.073Z,14.10
2018-05-31T07:11:38.992Z,14.60
2018-05-31T07:12:38.912Z,13.80
2018-05-31T07:13:38.831Z,12.90
2018-05-31T07:14:38.750Z,13.20
2018-05-31T07:15:38.697Z,12.80
2018-05-31T07:16:38.586Z,13.80
2018-05-31T07:17:38.508Z,13.50
2018-05-31T07:18:38.981Z,14.50
2018-05-31T07:19:38.349Z,14.10
2018-05-31T07:20:38.302Z,13.00
2018-05-31T07:21:38.187Z,13.10
2018-05-31T07:22:38.106Z,13.40
2018-05-31T07:23:38.024Z,13.00
2018-05-31T07:24:37.949Z,12.30
2018-05-31T07:25:37.898Z,12.70
2018-05-31T07:26:37.788Z,13.70
2018-05-31T07:27:37.709Z,12.00
2018-05-31T07:28:37.628Z,12.20
2018-05-31T07:29:37.552Z,12.10
2018-05-31T07:30:37.502Z,12.80
2018-05-31T07:31:37.388Z,11.30
2018-05-31T07:32:37.309Z,11.20
2018-05-31T07:33:37.235Z,12.40
2018-05-31T07:34:37.151Z,12.30
2018-05-31T07:35:37.106Z,13.10
2018-05-31T07:36:36.993Z,12.10
2018-05-31T07:37:36.914Z,12.90
2018-05-31T07:38:36.882Z,11.80
2018-05-31T07:39:36.756Z,11.50
2018-05-31T07:40:36.709Z,11.60
2018-05-31T07:41:36.598Z,12.60
2018-05-31T07:42:36.518Z,11.80
2018-05-31T07:43:36.439Z,11.20
2018-05-31T07:44:36.360Z,11.90
2018-05-31T07:45:36.311Z,11.20
2018-05-31T07:46:36.204Z,11.50
2018-05-31T07:47:36.123Z,10.90
2018-05-31T07:48:36.044Z,11.50
2018-05-31T07:49:35.965Z,11.80
2018-05-31T07:50:35.912Z,11.50
2018-05-31T07:51:35.806Z,11.40
2018-05-31T07:52:35.728Z,11.90
2018-05-31T07:53:35.650Z,11.70
2018-05-31T07:54:35.569Z,11.20
2018-05-31T07:55:35.491Z,11.50
2018-05-31T07:56:35.442Z,11.90
2018-05-31T07:57:35.425Z,10.90
2018-05-31T07:58:35.256Z,10.50
2018-05-31T07:59:35.176Z,11.60
2018-05-31T08:00:35.099Z,10.70
2018-05-31T08:01:35.047Z,10.90
2018-05-31T08:02:34.955Z,11.40
2018-05-31T08:03:34.861Z,11.50
2018-05-31T08:04:34.879Z,10.70
2018-05-31T08:05:34.709Z,11.70
2018-05-31T08:06:34.660Z,10.40
2018-05-31T08:07:34.545Z,11.10
2018-05-31T08:08:34.466Z,11.00
2018-05-31T08:09:34.388Z,10.70
2018-05-31T08:10:34.312Z,11.00
2018-05-31T08:11:34.354Z,11.00
2018-05-31T08:12:34.150Z,10.80
2018-05-31T08:13:34.075Z,10.20
2018-05-31T08:14:34.014Z,10.40
2018-05-31T08:15:33.916Z,10.10
2018-05-31T08:16:33.871Z,10.60
2018-05-31T08:17:33.757Z,10.70
2018-05-31T08:18:33.773Z,10.80
2018-05-31T08:19:33.602Z,10.70
2018-05-31T08:20:33.528Z,10.20
2018-05-31T08:21:33.477Z,10.80
2018-05-31T08:22:33.366Z,11.00
2018-05-31T08:23:33.288Z,10.30
2018-05-31T08:24:33.209Z,10.40
2018-05-31T08:25:33.230Z,10.00
2018-05-31T08:26:33.079Z,10.00
2018-05-31T08:27:32.975Z,10.20
2018-05-31T08:28:32.898Z,12.20
2018-05-31T08:29:32.819Z,9.40
2018-05-31T08:30:32.738Z,11.00
2018-05-31T08:31:32.761Z,10.20
2018-05-31T08:32:32.684Z,10.30
2018-05-31T08:33:32.508Z,10.90
2018-05-31T08:34:32.426Z,10.70
2018-05-31T08:35:33.003Z,11.10
2018-05-31T08:36:32.301Z,11.10
2018-05-31T08:37:32.196Z,10.60
2018-05-31T08:38:32.117Z,11.00
2018-05-31T08:39:32.136Z,11.10
2018-05-31T08:40:31.960Z,10.90
2018-05-31T08:41:31.909Z,10.60
2018-05-31T08:42:31.801Z,10.10
2018-05-31T08:43:31.725Z,10.00
2018-05-31T08:44:31.647Z,10.50
2018-05-31T08:45:31.571Z,10.00
2018-05-31T08:46:31.585Z,10.60
2018-05-31T08:47:31.445Z,10.60
2018-05-31T08:48:31.338Z,9.60
2018-05-31T08:49:31.257Z,10.30
2018-05-31T08:50:31.179Z,9.50
2018-05-31T08:51:31.111Z,10.10
2018-05-31T08:52:31.151Z,9.40
2018-05-31T08:53:30.949Z,9.80
2018-05-31T08:54:30.870Z,9.80
2018-05-31T08:55:30.791Z,9.90
2018-05-31T08:56:30.717Z,10.00
2018-05-31T08:57:30.677Z,9.50
2018-05-31T08:58:30.578Z,9.20
2018-05-31T08:59:30.481Z,9.50
2018-05-31T09:00:30.405Z,9.30
2018-05-31T09:01:30.327Z,9.70
2018-05-31T09:02:30.280Z,9.60
2018-05-31T09:03:30.169Z,10.10
2018-05-31T09:04:30.093Z,9.60
2018-05-31T09:05:30.016Z,9.60
2018-05-31T09:06:29.938Z,9.80
2018-05-31T09:07:29.891Z,10.00
2018-05-31T09:08:29.784Z,9.60
2018-05-31T09:09:29.722Z,9.70
2018-05-31T09:10:29.629Z,9.50
2018-05-31T09:11:29.552Z,10.30
2018-05-31T09:12:29.507Z,9.90
2018-05-31T09:13:29.396Z,9.70
2018-05-31T09:14:29.319Z,9.90
2018-05-31T09:15:29.241Z,9.80
2018-05-31T09:16:29.163Z,9.70
2018-05-31T09:17:29.124Z,9.50
2018-05-31T09:18:29.011Z,10.00
2018-05-31T09:19:28.935Z,10.10
2018-05-31T09:20:28.859Z,9.80
2018-05-31T09:21:28.782Z,9.70
2018-05-31T09:22:28.732Z,9.40
2018-05-31T09:23:28.626Z,9.60
2018-05-31T09:24:28.551Z,9.60
2018-05-31T09:25:28.491Z,9.00
2018-05-31T09:26:28.397Z,9.30
2018-05-31T09:27:28.351Z,8.70
2018-05-31T09:28:28.291Z,9.50
2018-05-31T09:29:28.166Z,9.50
2018-05-31T09:30:28.088Z,9.40
2018-05-31T09:31:28.013Z,9.00
2018-05-31T09:32:27.965Z,9.10
2018-05-31T09:33:27.859Z,8.70
2018-05-31T09:34:27.783Z,9.10
2018-05-31T09:35:27.707Z,9.90
2018-05-31T09:36:27.631Z,8.80
2018-05-31T09:37:27.585Z,9.50
2018-05-31T09:38:27.479Z,9.30
2018-05-31T09:39:27.401Z,9.20
2018-05-31T09:40:27.325Z,9.40
2018-05-31T09:41:27.255Z,9.70
2018-05-31T09:42:27.208Z,9.40
2018-05-31T09:43:27.099Z,9.70
2018-05-31T09:44:27.023Z,8.50
2018-05-31T09:45:26.947Z,9.00
2018-05-31T09:46:26.870Z,8.60
2018-05-31T09:47:26.823Z,8.50
2018-05-31T09:48:26.719Z,8.70
2018-05-31T09:49:26.651Z,8.20
2018-05-31T09:50:26.568Z,9.20
2018-05-31T09:51:26.488Z,8.90
2018-05-31T09:52:26.414Z,9.30
2018-05-31T09:53:26.371Z,8.10
2018-05-31T09:54:26.262Z,9.80
2018-05-31T09:55:26.228Z,8.80
2018-05-31T09:56:26.111Z,9.10
2018-05-31T09:57:26.041Z,8.20
2018-05-31T09:58:25.990Z,8.20
2018-05-31T09:59:25.885Z,8.10
2018-05-31T10:00:25.809Z,7.90
2018-05-31T10:01:25.733Z,8.90
2018-05-31T10:02:25.661Z,8.40
2018-05-31T10:03:25.626Z,8.00
2018-05-31T10:04:25.507Z,9.00
2018-05-31T10:05:25.430Z,8.40
2018-05-31T10:06:25.353Z,8.10
2018-05-31T10:07:25.279Z,7.80
2018-05-31T10:08:25.230Z,7.70
2018-05-31T10:09:25.129Z,8.00
2018-05-31T10:10:25.050Z,8.00
2018-05-31T10:11:24.976Z,9.10
2018-05-31T10:12:24.899Z,8.30
2018-05-31T10:13:24.853Z,9.20
2018-05-31T10:14:24.749Z,8.00
2018-05-31T10:15:24.675Z,8.30
2018-05-31T10:16:24.703Z,7.80
2018-05-31T10:17:24.528Z,9.70
2018-05-31T10:18:24.479Z,8.20
2018-05-31T10:19:24.371Z,7.80
2018-05-31T10:20:24.296Z,8.60
2018-05-31T10:21:24.221Z,8.60
2018-05-31T10:22:24.143Z,8.50
2018-05-31T10:23:24.192Z,7.60
2018-05-31T10:24:23.993Z,8.10
2018-05-31T10:25:24.641Z,8.00
2018-05-31T10:26:23.840Z,8.00
2018-05-31T10:27:23.776Z,8.10
2018-05-31T10:28:23.724Z,7.70
2018-05-31T10:29:23.619Z,7.80
2018-05-31T10:30:23.633Z,7.90
2018-05-31T10:31:23.468Z,8.60
2018-05-31T10:32:23.391Z,7.40
2018-05-31T10:33:23.345Z,8.30
2018-05-31T10:34:23.239Z,7.80
2018-05-31T10:35:23.163Z,8.00
2018-05-31T10:36:24.006Z,7.40
2018-05-31T10:37:23.114Z,7.60
2018-05-31T10:38:22.970Z,7.20
2018-05-31T10:39:22.885Z,8.40
2018-05-31T10:40:22.791Z,8.00
2018-05-31T10:41:22.715Z,7.90
2018-05-31T10:42:22.641Z,7.70
2018-05-31T10:43:22.595Z,8.60
2018-05-31T10:44:22.590Z,8.50
2018-05-31T10:45:22.413Z,8.20
2018-05-31T10:46:22.394Z,7.70
2018-05-31T10:47:22.265Z,8.10
2018-05-31T10:48:22.215Z,7.40
2018-05-31T10:49:22.112Z,8.00
2018-05-31T10:50:22.034Z,7.90
2018-05-31T10:51:22.054Z,7.60
2018-05-31T10:52:21.886Z,7.60
2018-05-31T10:53:21.808Z,8.00
2018-05-31T10:54:21.765Z,8.40
2018-05-31T10:55:21.659Z,8.10
2018-05-31T10:56:21.584Z,10.80
2018-05-31T10:57:21.510Z,8.60
2018-05-31T10:58:21.527Z,7.40
2018-05-31T10:59:21.463Z,7.60
2018-05-31T11:00:21.284Z,7.50
2018-05-31T11:01:21.209Z,7.20
2018-05-31T11:02:21.132Z,6.80
2018-05-31T11:03:21.058Z,8.10
2018-05-31T11:04:21.012Z,7.40
2018-05-31T11:05:20.907Z,9.40
2018-05-31T11:06:20.831Z,7.50
2018-05-31T11:07:20.753Z,9.40
2018-05-31T11:08:20.682Z,7.30
2018-05-31T11:09:20.634Z,7.40
2018-05-31T11:10:20.526Z,7.50
2018-05-31T11:11:20.549Z,7.20
2018-05-31T11:12:20.378Z,8.70
2018-05-31T11:13:20.301Z,6.80
2018-05-31T11:14:20.257Z,7.20
2018-05-31T11:15:20.151Z,7.90
2018-05-31T11:16:20.086Z,7.60
2018-05-31T11:17:20.001Z,7.50
2018-05-31T11:18:19.927Z,7.60
2018-05-31T11:19:19.881Z,7.50
2018-05-31T11:20:19.775Z,7.80
2018-05-31T11:21:19.703Z,7.30
2018-05-31T11:22:19.622Z,7.30
2018-05-31T11:23:19.554Z,7.60
2018-05-31T11:24:19.507Z,7.30
2018-05-31T11:25:19.402Z,7.50
2018-05-31T11:26:19.331Z,7.30
2018-05-31T11:27:19.252Z,7.40
2018-05-31T11:28:19.179Z,6.90
2018-05-31T11:29:19.206Z,6.30
2018-05-31T11:30:19.027Z,6.00
2018-05-31T11:31:18.951Z,6.00
2018-05-31T11:32:18.876Z,6.40
2018-05-31T11:33:18.800Z,6.60
2018-05-31T11:34:18.756Z,5.80
2018-05-31T11:35:18.649Z,5.80
2018-05-31T11:36:18.575Z,5.60
2018-05-31T11:37:18.500Z,6.20
2018-05-31T11:38:18.427Z,6.50
2018-05-31T11:39:18.382Z,6.40
2018-05-31T11:40:18.273Z,6.40
2018-05-31T11:41:18.199Z,6.60
2018-05-31T11:42:18.125Z,7.00
2018-05-31T11:43:18.047Z,6.80
2018-05-31T11:44:18.004Z,7.70
2018-05-31T11:45:17.901Z,6.80
2018-05-31T11:46:17.822Z,6.40
2018-05-31T11:47:17.748Z,6.30
2018-05-31T11:48:17.675Z,6.10
2018-05-31T11:49:17.628Z,6.40
2018-05-31T11:50:17.527Z,6.70
2018-05-31T11:51:17.450Z,7.20
2018-05-31T11:52:17.378Z,6.10
2018-05-31T11:53:17.308Z,6.20
2018-05-31T11:54:17.252Z,5.00
2018-05-31T11:55:17.150Z,5.80
2018-05-31T11:56:17.078Z,5.90
2018-05-31T11:57:17.001Z,5.20
2018-05-31T11:58:16.925Z,6.80
2018-05-31T11:59:16.881Z,5.60
2018-05-31T12:00:16.777Z,5.60
2018-05-31T12:01:16.703Z,5.80
2018-05-31T12:02:16.626Z,4.90
2018-05-31T12:03:16.552Z,4.90
2018-05-31T12:04:16.515Z,4.80
2018-05-31T12:05:16.433Z,4.70
2018-05-31T12:06:16.328Z,4.60
2018-05-31T12:07:16.255Z,4.80
2018-05-31T12:08:16.220Z,5.70
2018-05-31T12:09:18.046Z,6.30
2018-05-31T12:10:16.060Z,5.40
2018-05-31T12:11:15.958Z,4.40
2018-05-31T12:12:15.927Z,4.50
2018-05-31T12:13:15.810Z,4.90
2018-05-31T12:14:17.083Z,5.40
2018-05-31T12:15:15.690Z,6.60
2018-05-31T12:16:15.588Z,4.90
2018-05-31T12:17:15.514Z,4.80
2018-05-31T12:18:15.437Z,4.50
2018-05-31T12:19:15.363Z,5.60
2018-05-31T12:20:15.321Z,5.90
2018-05-31T12:21:15.321Z,5.80
2018-05-31T12:22:15.140Z,6.10
2018-05-31T12:23:15.069Z,6.10
2018-05-31T12:24:14.996Z,8.80
2018-05-31T12:25:14.967Z,6.00
2018-05-31T12:26:14.846Z,6.00
2018-05-31T12:27:14.774Z,5.60
2018-05-31T12:28:14.793Z,8.00
2018-05-31T12:29:14.627Z,7.40
2018-05-31T12:30:14.578Z,5.90
2018-05-31T12:31:14.475Z,5.90
2018-05-31T12:32:14.414Z,5.50
2018-05-31T12:33:14.343Z,7.10
2018-05-31T12:34:14.252Z,6.20
2018-05-31T12:35:14.308Z,6.60
2018-05-31T12:36:14.105Z,6.10
2018-05-31T12:37:14.029Z,6.30
2018-05-31T12:38:13.954Z,5.90
2018-05-31T12:39:13.882Z,6.70
2018-05-31T12:40:13.837Z,5.90
2018-05-31T12:41:13.732Z,6.00
2018-05-31T12:42:13.749Z,6.10
2018-05-31T12:43:13.594Z,7.70
2018-05-31T12:44:13.513Z,6.30
2018-05-31T12:45:13.465Z,6.60
2018-05-31T12:46:13.362Z,5.70
2018-05-31T12:47:13.283Z,6.20
2018-05-31T12:48:13.209Z,6.20
2018-05-31T12:49:13.223Z,6.90
2018-05-31T12:50:13.090Z,6.30
2018-05-31T12:51:12.984Z,6.50
2018-05-31T12:52:12.909Z,6.50
2018-05-31T12:53:12.835Z,6.50
2018-05-31T12:54:12.760Z,6.20
2018-05-31T12:55:12.713Z,6.30
2018-05-31T12:56:12.698Z,6.90
2018-05-31T12:57:12.535Z,7.60
2018-05-31T12:58:13.071Z,6.90
2018-05-31T12:59:12.385Z,7.20